Time;durP1;ratioP1;P1;durP2;ratioP2;P2;SDS_P1;SDS_P2;PMS_P1;PMS_P2;Temp;Humidity;BMP_temperature;BMP_pressure;BME280_temperature;BME280_humidity;BME280_pressure;Samples;Min_cycle;Max_cycle;Signal;HPM_P1;HPM_P2
2023/04/21 00:01:25;;;;;;;20.77;18.90;;;;;;;9.26;100.00;101400.22;5262686;28;20032;-71
2023/04/21 00:03:56;;;;;;;20.52;18.63;;;;;;;9.34;100.00;101407.50;5277897;28;20028;-71
2023/04/21 00:06:30;;;;;;;20.80;18.75;;;;;;;9.22;100.00;101403.16;5281309;28;20039;-71
2023/04/21 00:09:01;;;;;;;21.70;19.70;;;;;;;9.18;100.00;101399.91;5280912;28;20027;-71
2023/04/21 00:11:33;;;;;;;20.42;18.42;;;;;;;9.22;100.00;101400.53;5279304;28;20040;-71
2023/04/21 00:14:04;;;;;;;20.98;19.08;;;;;;;9.28;100.00;101394.91;5282747;28;20099;-71
2023/04/21 00:16:35;;;;;;;20.45;18.52;;;;;;;9.41;100.00;101394.84;5262785;28;20047;-71
2023/04/21 00:19:07;;;;;;;21.23;19.13;;;;;;;9.30;100.00;101385.16;5282598;28;20485;-71
2023/04/21 00:21:38;;;;;;;21.00;19.10;;;;;;;9.23;100.00;101384.72;5257029;28;20123;-71
2023/04/21 00:24:10;;;;;;;21.73;19.67;;;;;;;9.21;100.00;101377.97;5277670;28;20089;-71
2023/04/21 00:26:41;;;;;;;22.02;19.80;;;;;;;9.20;100.00;101381.50;5281349;28;20031;-72
2023/04/21 00:29:12;;;;;;;22.52;20.10;;;;;;;9.17;100.00;101369.50;5282406;28;20911;-71
2023/04/21 00:31:43;;;;;;;22.23;20.02;;;;;;;9.16;100.00;101375.66;5278725;28;20488;-71
2023/04/21 00:34:15;;;;;;;22.45;20.40;;;;;;;9.12;100.00;101368.13;5281713;28;20513;-70
2023/04/21 00:36:46;;;;;;;22.52;20.42;;;;;;;9.18;100.00;101368.53;5280996;28;20028;-71
2023/04/21 00:39:17;;;;;;;22.05;19.67;;;;;;;9.25;100.00;101376.81;5272980;28;20032;-72
2023/04/21 00:41:48;;;;;;;22.45;20.25;;;;;;;9.20;100.00;101371.88;5281005;28;20086;-71
2023/04/21 00:44:20;;;;;;;23.40;21.00;;;;;;;9.18;100.00;101363.31;5282537;28;20024;-71
2023/04/21 00:46:51;;;;;;;22.85;20.60;;;;;;;9.18;100.00;101357.25;5277594;28;20742;-71
2023/04/21 00:49:23;;;;;;;23.98;21.77;;;;;;;9.24;100.00;101370.75;5277708;28;20028;-72
2023/04/21 00:51:54;;;;;;;22.88;20.73;;;;;;;9.22;100.00;101372.63;5259820;28;20028;-71
2023/04/21 00:54:26;;;;;;;23.45;21.15;;;;;;;9.23;100.00;101374.28;5255892;28;20039;-71
2023/04/21 00:56:58;;;;;;;23.17;20.98;;;;;;;9.27;100.00;101364.44;5275625;28;20057;-71
2023/04/21 00:59:29;;;;;;;24.35;21.88;;;;;;;9.18;100.00;101362.50;5258908;28;20720;-71
2023/04/21 01:02:01;;;;;;;23.88;21.40;;;;;;;9.15;100.00;101363.53;5279379;28;20024;-71
2023/04/21 01:04:37;;;;;;;22.45;20.23;;;;;;;9.22;100.00;101356.09;5281284;28;20051;-71
2023/04/21 01:07:08;;;;;;;23.13;20.90;;;;;;;9.27;100.00;101367.88;5280519;28;20036;-71
2023/04/21 01:09:40;;;;;;;23.50;21.15;;;;;;;9.27;100.00;101367.88;5281514;28;20059;-71
2023/04/21 01:12:12;;;;;;;23.08;20.90;;;;;;;9.24;100.00;101349.81;5283431;28;20500;-71
2023/04/21 01:14:43;;;;;;;23.55;21.35;;;;;;;9.30;100.00;101348.53;5279852;28;20139;-71
2023/04/21 01:17:17;;;;;;;23.23;21.02;;;;;;;9.19;100.00;101349.28;5283656;28;20031;-71
2023/04/21 01:19:50;;;;;;;22.58;20.45;;;;;;;9.13;100.00;101347.13;5281604;28;20028;-71
2023/04/21 01:22:21;;;;;;;22.73;20.60;;;;;;;9.20;100.00;101345.72;5279948;28;20028;-71
2023/04/21 01:24:52;;;;;;;22.17;19.98;;;;;;;9.23;100.00;101337.66;5275520;28;20036;-71
2023/04/21 01:27:25;;;;;;;23.92;21.40;;;;;;;9.23;100.00;101327.22;5277041;28;20114;-71
2023/04/21 01:29:57;;;;;;;23.25;21.05;;;;;;;9.27;100.00;101325.22;5277457;28;20500;-71
2023/04/21 01:32:29;;;;;;;22.83;20.63;;;;;;;9.23;100.00;101326.38;5282811;28;20032;-71
2023/04/21 01:35:00;;;;;;;22.60;20.40;;;;;;;9.25;100.00;101321.91;5258820;28;20556;-71
2023/04/21 01:37:32;;;;;;;24.73;22.25;;;;;;;9.27;100.00;101327.84;5269957;28;20539;-71
2023/04/21 01:40:07;;;;;;;22.92;20.58;;;;;;;9.27;100.00;101322.59;5275678;28;20389;-71
2023/04/21 01:42:42;;;;;;;22.95;20.75;;;;;;;9.32;100.00;101323.13;5280811;28;20393;-71
2023/04/21 01:45:13;;;;;;;23.02;20.67;;;;;;;9.31;100.00;101316.22;5276859;28;20056;-71
2023/04/21 01:47:44;;;;;;;22.98;20.65;;;;;;;9.32;100.00;101320.50;5280695;28;20536;-71
2023/04/21 01:50:17;;;;;;;23.02;20.65;;;;;;;9.21;100.00;101304.75;5277542;28;20024;-71
2023/04/21 01:52:48;;;;;;;22.75;20.45;;;;;;;9.12;100.00;101302.78;5279208;28;20044;-71
2023/04/21 01:55:19;;;;;;;23.40;21.17;;;;;;;9.16;100.00;101297.22;5274129;28;20028;-71
2023/04/21 01:57:51;;;;;;;23.33;20.80;;;;;;;9.15;100.00;101298.19;5279016;28;20148;-71
2023/04/21 02:00:22;;;;;;;23.25;20.90;;;;;;;9.07;100.00;101284.81;5259539;28;20446;-71
2023/04/21 02:02:53;;;;;;;22.90;20.45;;;;;;;9.06;100.00;101275.31;5275318;28;20403;-71
2023/04/21 02:05:25;;;;;;;21.88;19.67;;;;;;;9.07;100.00;101282.22;5279447;28;20055;-71
2023/04/21 02:07:56;;;;;;;20.83;18.70;;;;;;;9.13;100.00;101262.63;5279395;28;20039;-71
2023/04/21 02:10:27;;;;;;;22.05;19.75;;;;;;;9.06;100.00;101267.47;5276727;28;20029;-71
2023/04/21 02:12:59;;;;;;;21.50;19.30;;;;;;;9.06;100.00;101271.88;5281743;28;20089;-71
2023/04/21 02:15:31;;;;;;;20.45;18.25;;;;;;;9.06;100.00;101275.31;5277515;28;20020;-71
2023/04/21 02:18:02;;;;;;;21.27;18.92;;;;;;;9.08;100.00;101278.66;5279858;28;20335;-71
2023/04/21 02:20:34;;;;;;;20.98;18.88;;;;;;;9.04;100.00;101278.97;5260097;28;20088;-71
2023/04/21 02:23:05;;;;;;;20.67;18.48;;;;;;;9.07;100.00;101276.97;5280353;28;20099;-71
2023/04/21 02:25:36;;;;;;;22.00;19.80;;;;;;;9.06;100.00;101274.50;5281311;28;20015;-71
2023/04/21 02:28:07;;;;;;;21.90;19.45;;;;;;;9.04;100.00;101266.75;5260367;28;20036;-71
2023/04/21 02:30:39;;;;;;;21.27;19.10;;;;;;;9.04;100.00;101266.75;5279961;28;20051;-71
2023/04/21 02:33:10;;;;;;;21.98;19.73;;;;;;;9.01;100.00;101270.41;5263017;28;20028;-71
2023/04/21 02:35:41;;;;;;;22.90;20.42;;;;;;;9.05;100.00;101270.19;5258019;28;20062;-71
2023/04/21 02:38:13;;;;;;;22.58;20.20;;;;;;;9.05;100.00;101265.78;5276915;28;20513;-71
2023/04/21 02:40:44;;;;;;;22.80;20.50;;;;;;;9.12;100.00;101267.03;5281716;28;20028;-71
2023/04/21 02:43:16;;;;;;;22.10;19.92;;;;;;;9.08;100.00;101259.53;5278775;28;20021;-71
2023/04/21 02:45:47;;;;;;;22.20;19.92;;;;;;;9.08;100.00;101262.97;5280689;28;20036;-71
2023/04/21 02:48:21;;;;;;;23.13;20.70;;;;;;;9.04;100.00;101255.47;5275606;28;20111;-71
2023/04/21 02:50:53;;;;;;;23.45;21.05;;;;;;;9.02;100.00;101266.03;5278086;28;20024;-71
2023/04/21 02:53:24;;;;;;;24.35;21.85;;;;;;;9.05;100.00;101257.13;5277504;28;20047;-71
2023/04/21 02:55:55;;;;;;;24.20;21.60;;;;;;;9.09;100.00;101258.56;5277809;28;20044;-71
2023/04/21 02:58:27;;;;;;;23.23;20.80;;;;;;;9.03;100.00;101252.00;5279938;28;20872;-71
2023/04/21 03:00:58;;;;;;;26.05;22.58;;;;;;;9.09;100.00;101266.41;5278522;28;20025;-71
2023/04/21 03:03:33;;;;;;;24.98;22.17;;;;;;;9.10;100.00;101257.66;5261942;28;20027;-71
2023/04/21 03:06:04;;;;;;;26.08;23.08;;;;;;;9.05;100.00;101251.88;5280140;28;20048;-71
2023/04/21 03:08:36;;;;;;;24.20;21.60;;;;;;;8.96;100.00;101246.38;5277544;28;20422;-71
2023/04/21 03:11:07;;;;;;;24.02;21.30;;;;;;;9.03;100.00;101257.25;5270953;28;20043;-71
2023/04/21 03:13:38;;;;;;;25.58;22.75;;;;;;;8.91;100.00;101240.66;5281226;28;20028;-71
2023/04/21 03:16:10;;;;;;;26.33;22.27;;;;;;;8.93;100.00;101249.22;5277785;28;20479;-71
2023/04/21 03:18:41;;;;;;;25.92;22.48;;;;;;;8.86;100.00;101247.97;5276732;28;21047;-71
2023/04/21 03:21:12;;;;;;;25.13;22.42;;;;;;;8.80;100.00;101240.59;5278464;28;20032;-71
2023/04/21 03:23:44;;;;;;;25.98;23.27;;;;;;;8.82;100.00;101251.75;5282263;28;20024;-71
2023/04/21 03:26:15;;;;;;;27.80;23.33;;;;;;;8.84;100.00;101252.50;5277759;28;20028;-71
2023/04/21 03:28:46;;;;;;;26.52;23.27;;;;;;;8.77;100.00;101256.47;5279253;28;20267;-71
2023/04/21 03:31:18;;;;;;;26.55;23.67;;;;;;;8.77;100.00;101240.81;5279996;28;20028;-71
2023/04/21 03:33:49;;;;;;;27.10;24.20;;;;;;;8.77;100.00;101246.84;5279671;28;20385;-71
2023/04/21 03:36:20;;;;;;;27.92;24.90;;;;;;;8.71;100.00;101236.88;5258146;28;20067;-71
2023/04/21 03:38:51;;;;;;;27.35;24.45;;;;;;;8.66;100.00;101246.78;5260477;28;20028;-71
2023/04/21 03:41:23;;;;;;;28.90;25.67;;;;;;;8.69;100.00;101251.78;5277206;28;20394;-71
2023/04/21 03:43:54;;;;;;;29.90;25.10;;;;;;;8.69;100.00;101251.78;5272521;28;20028;-71
2023/04/21 03:46:26;;;;;;;29.80;26.20;;;;;;;8.67;100.00;101243.22;5279565;28;20038;-71
2023/04/21 03:48:57;;;;;;;27.52;24.50;;;;;;;8.75;100.00;101245.28;5279352;28;20036;-73
2023/04/21 03:51:28;;;;;;;30.80;27.05;;;;;;;8.72;100.00;101245.53;5275106;28;20024;-73
2023/04/21 03:54:00;;;;;;;30.10;26.92;;;;;;;8.74;100.00;101259.31;5276043;28;20042;-73
2023/04/21 03:56:31;;;;;;;30.02;25.88;;;;;;;8.84;100.00;101254.28;5277430;28;20051;-73
2023/04/21 03:59:02;;;;;;;30.48;27.17;;;;;;;8.86;100.00;101247.97;5280300;28;20089;-74
2023/04/21 04:01:34;;;;;;;32.50;28.60;;;;;;;8.86;100.00;101255.81;5280789;28;20016;-73
2023/04/21 04:04:06;;;;;;;32.22;27.45;;;;;;;8.91;100.00;101253.72;5277942;28;20548;-73
2023/04/21 04:06:37;;;;;;;33.67;28.02;;;;;;;8.90;100.00;101252.06;5277844;28;20317;-73
2023/04/21 04:09:08;;;;;;;33.53;28.95;;;;;;;8.92;100.00;101242.31;5260233;28;20291;-73
2023/04/21 04:11:39;;;;;;;34.47;28.80;;;;;;;8.94;100.00;101248.28;5279393;28;20103;-73
2023/04/21 04:14:10;;;;;;;32.67;29.08;;;;;;;9.00;100.00;101253.06;5280002;28;20046;-74
2023/04/21 04:16:42;;;;;;;31.63;28.20;;;;;;;9.02;100.00;101251.19;5278058;28;20027;-73
2023/04/21 04:19:14;;;;;;;33.08;28.60;;;;;;;9.01;100.00;101244.28;5278869;28;20039;-73
2023/04/21 04:21:46;;;;;;;32.07;28.67;;;;;;;8.99;100.00;101243.56;5278085;28;20036;-73
2023/04/21 04:24:18;;;;;;;34.15;29.25;;;;;;;8.93;100.00;101233.53;5257122;28;20024;-73
2023/04/21 04:26:50;;;;;;;34.35;30.60;;;;;;;8.95;100.00;101236.88;5273857;28;20097;-73
2023/04/21 04:29:21;;;;;;;35.90;30.50;;;;;;;8.94;100.00;101235.22;5281091;28;20028;-73
2023/04/21 04:31:52;;;;;;;33.75;28.20;;;;;;;8.97;100.00;101242.81;5283148;28;20059;-73
2023/04/21 04:34:24;;;;;;;35.25;30.42;;;;;;;8.98;100.00;101234.06;5281337;28;20111;-73
2023/04/21 04:36:56;;;;;;;35.58;31.67;;;;;;;9.09;100.00;101235.03;5263206;28;20515;-73
2023/04/21 04:39:27;;;;;;;35.22;31.17;;;;;;;8.96;100.00;101237.72;5280781;28;20509;-73
2023/04/21 04:41:58;;;;;;;38.78;32.30;;;;;;;9.10;100.00;101241.97;5278257;28;20031;-74
2023/04/21 04:44:30;;;;;;;36.03;30.55;;;;;;;9.09;100.00;101243.75;5284225;28;20016;-73
2023/04/21 04:47:02;;;;;;;37.55;31.02;;;;;;;9.01;100.00;101243.44;5286883;28;20019;-73
2023/04/21 04:49:34;;;;;;;36.17;31.85;;;;;;;8.96;100.00;101235.09;5282124;28;20093;-73
2023/04/21 04:52:05;;;;;;;37.50;31.75;;;;;;;9.09;100.00;101250.72;5255947;28;20548;-73
2023/04/21 04:54:37;;;;;;;37.25;32.45;;;;;;;9.13;100.00;101255.66;5284447;28;20025;-73
2023/04/21 04:57:08;;;;;;;39.55;33.00;;;;;;;9.18;100.00;101247.47;5280322;28;20070;-73
2023/04/21 04:59:39;;;;;;;42.17;33.35;;;;;;;9.19;100.00;101251.75;5263689;28;20056;-73
2023/04/21 05:02:11;;;;;;;37.83;32.72;;;;;;;9.13;100.00;101246.94;5279909;28;20462;-73
2023/04/21 05:04:43;;;;;;;40.72;33.95;;;;;;;9.16;100.00;101254.56;5281493;28;20028;-73
2023/04/21 05:07:14;;;;;;;39.65;34.33;;;;;;;9.20;100.00;101256.00;5282157;28;20024;-73
2023/04/21 05:09:45;;;;;;;39.53;33.38;;;;;;;9.21;100.00;101248.06;5276835;28;20697;-73
2023/04/21 05:12:16;;;;;;;39.25;32.65;;;;;;;9.24;100.00;101247.88;5276311;28;20087;-73
2023/04/21 05:14:48;;;;;;;42.50;36.40;;;;;;;9.30;100.00;101243.94;5279862;28;20250;-73
2023/04/21 05:17:19;;;;;;;40.20;34.63;;;;;;;9.39;100.00;101256.34;5282250;28;20021;-73
2023/04/21 05:19:50;;;;;;;45.95;37.13;;;;;;;9.41;100.00;101251.84;5281192;28;20032;-71
2023/04/21 05:22:21;;;;;;;43.35;35.22;;;;;;;9.44;100.00;101256.84;5279649;28;20027;-71
2023/04/21 05:24:53;;;;;;;48.15;37.05;;;;;;;9.42;100.00;101257.91;5280759;28;20492;-71
2023/04/21 05:27:24;;;;;;;47.65;39.40;;;;;;;9.45;100.00;101268.97;5277216;28;20497;-71
2023/04/21 05:29:55;;;;;;;47.88;38.95;;;;;;;9.43;100.00;101257.81;5276203;28;20487;-71
2023/04/21 05:32:28;;;;;;;46.60;37.90;;;;;;;9.51;100.00;101259.88;5281583;28;20402;-73
2023/04/21 05:34:59;;;;;;;47.67;39.78;;;;;;;9.53;100.00;101268.41;5279468;28;20029;-74
2023/04/21 05:37:30;;;;;;;46.13;37.60;;;;;;;9.47;100.00;101279.31;5279320;28;20035;-73
2023/04/21 05:40:02;;;;;;;47.40;37.97;;;;;;;9.48;100.00;101278.38;5282106;28;20474;-73
2023/04/21 05:42:33;;;;;;;48.00;39.40;;;;;;;9.40;100.00;101276.34;5278542;28;20074;-73
2023/04/21 05:45:05;;;;;;;49.58;39.35;;;;;;;9.46;100.00;101265.41;5278478;28;20020;-73
2023/04/21 05:47:37;;;;;;;45.90;37.92;;;;;;;9.47;100.00;101279.31;5261409;28;20084;-73
2023/04/21 05:50:09;;;;;;;46.17;38.13;;;;;;;9.49;100.00;101280.88;5280065;28;20020;-72
2023/04/21 05:52:40;;;;;;;48.22;38.58;;;;;;;9.43;100.00;101283.09;5279036;28;20806;-73
2023/04/21 05:55:12;;;;;;;48.75;38.80;;;;;;;9.51;100.00;101275.56;5279846;28;20040;-73
2023/04/21 05:57:43;;;;;;;47.97;38.25;;;;;;;9.52;100.00;101284.22;5277184;28;20083;-73
2023/04/21 06:00:15;;;;;;;47.33;39.58;;;;;;;9.41;100.00;101279.78;5279599;28;20031;-73
2023/04/21 06:02:46;;;;;;;49.95;39.85;;;;;;;9.42;100.00;101276.22;5276735;28;20024;-73
2023/04/21 06:05:18;;;;;;;47.83;40.90;;;;;;;9.40;100.00;101270.28;5257874;28;20621;-73
2023/04/21 06:07:49;;;;;;;47.22;38.03;;;;;;;9.43;100.00;101272.63;5272840;28;20456;-72
2023/04/21 06:10:20;;;;;;;47.03;39.58;;;;;;;9.49;100.00;101265.19;5275541;28;20024;-73
2023/04/21 06:12:51;;;;;;;49.58;38.58;;;;;;;9.53;100.00;101263.19;5265081;28;20043;-73
2023/04/21 06:15:23;;;;;;;47.97;38.85;;;;;;;9.53;100.00;101263.19;5241748;28;20034;-73
2023/04/21 06:17:54;;;;;;;45.42;36.35;;;;;;;9.63;100.00;101271.19;5273909;28;20032;-73
2023/04/21 06:20:26;;;;;;;46.35;38.13;;;;;;;9.69;100.00;101268.94;5277729;28;20454;-73
2023/04/21 06:22:57;;;;;;;41.85;36.40;;;;;;;9.73;100.00;101265.16;5255919;28;20481;-73
2023/04/21 06:25:29;;;;;;;45.45;37.42;;;;;;;9.68;100.00;101266.44;5276953;28;20036;-73
2023/04/21 06:28:00;;;;;;;44.38;38.45;;;;;;;9.79;100.00;101273.50;5274525;28;20089;-73
2023/04/21 06:30:31;;;;;;;45.17;37.97;;;;;;;9.86;100.00;101274.72;5279838;28;20444;-73
2023/04/21 06:33:03;;;;;;;43.67;37.33;;;;;;;9.76;100.00;101264.09;5278744;28;20046;-72
2023/04/21 06:35:34;;;;;;;44.10;38.28;;;;;;;9.90;100.00;101277.00;5275083;28;20298;-72
2023/04/21 06:38:07;;;;;;;44.05;36.97;;;;;;;9.98;100.00;101282.47;5273028;28;20024;-73
2023/04/21 06:40:38;;;;;;;45.30;37.28;;;;;;;10.02;100.00;101277.00;5277457;28;20049;-73
2023/04/21 06:43:10;;;;;;;45.20;38.15;;;;;;;9.96;100.00;101279.16;5275502;28;20028;-72
2023/04/21 06:45:41;;;;;;;45.38;37.53;;;;;;;10.06;100.00;101278.44;5270437;28;20032;-72
2023/04/21 06:48:12;;;;;;;44.08;37.67;;;;;;;10.10;100.00;101279.88;5269489;28;20556;-72
2023/04/21 06:50:45;;;;;;;46.22;39.60;;;;;;;10.17;100.00;101273.22;5261986;28;20142;-72
2023/04/21 06:53:20;;;;;;;41.20;36.53;;;;;;;10.15;100.00;101269.88;5273373;28;20527;-72
2023/04/21 06:55:52;;;;;;;40.40;35.88;;;;;;;10.27;100.00;101276.84;5276054;28;20307;-72
2023/04/21 06:58:25;;;;;;;43.03;36.63;;;;;;;10.33;100.00;101283.41;5274813;28;20054;-73
2023/04/21 07:00:56;;;;;;;39.83;34.80;;;;;;;10.37;100.00;101271.72;5272430;28;20033;-72
2023/04/21 07:03:27;;;;;;;39.88;33.38;;;;;;;10.36;100.00;101273.50;5271913;28;20035;-72
2023/04/21 07:05:59;;;;;;;38.90;34.55;;;;;;;10.45;100.00;101257.09;5273956;28;20417;-73
2023/04/21 07:08:30;;;;;;;39.72;35.10;;;;;;;10.68;100.00;101268.41;5257671;28;20102;-72
2023/04/21 07:11:02;;;;;;;42.03;35.60;;;;;;;10.80;100.00;101268.41;5276125;28;20031;-72
2023/04/21 07:13:33;;;;;;;37.58;33.53;;;;;;;10.81;100.00;101273.50;5276149;28;20144;-73
2023/04/21 07:16:04;;;;;;;40.80;34.85;;;;;;;10.90;100.00;101271.94;5277207;28;20052;-73
2023/04/21 07:18:38;;;;;;;38.45;32.72;;;;;;;10.96;100.00;101261.81;5277362;28;20497;-73
2023/04/21 07:21:10;;;;;;;37.80;33.75;;;;;;;11.06;100.00;101272.41;5272861;28;20146;-72
2023/04/21 07:23:41;;;;;;;38.17;34.05;;;;;;;11.18;100.00;101266.16;5276917;28;20859;-72
2023/04/21 07:26:12;;;;;;;34.40;30.77;;;;;;;11.08;100.00;101277.50;5275145;28;20024;-72
2023/04/21 07:28:43;;;;;;;33.95;30.35;;;;;;;11.17;100.00;101274.13;5274281;28;20032;-72
2023/04/21 07:31:15;;;;;;;33.38;28.98;;;;;;;11.30;100.00;101268.75;5275494;28;20492;-72
2023/04/21 07:33:46;;;;;;;35.10;30.10;;;;;;;11.45;100.00;101262.25;5255659;28;20063;-72
2023/04/21 07:36:17;;;;;;;31.55;28.25;;;;;;;11.61;100.00;101256.59;5276607;28;20028;-73
2023/04/21 07:38:49;;;;;;;31.10;28.00;;;;;;;11.64;100.00;101257.16;5271753;28;20489;-72
2023/04/21 07:41:20;;;;;;;29.73;26.50;;;;;;;11.81;100.00;101257.53;5277674;28;20020;-73
2023/04/21 07:43:51;;;;;;;29.15;26.15;;;;;;;11.66;100.00;101249.16;5275120;28;20027;-72
2023/04/21 07:46:28;;;;;;;26.25;23.55;;;;;;;11.79;100.00;101269.97;5275515;28;20472;-72
2023/04/21 07:49:00;;;;;;;23.58;21.08;;;;;;;11.88;100.00;101259.56;5269179;28;20479;-72
2023/04/21 07:51:31;;;;;;;25.67;22.80;;;;;;;12.06;100.00;101259.00;5278027;28;20082;-72
2023/04/21 07:54:02;;;;;;;24.63;22.13;;;;;;;12.11;100.00;101262.88;5279992;28;20048;-72
2023/04/21 07:56:34;;;;;;;25.42;22.92;;;;;;;12.20;100.00;101248.16;5273857;28;20100;-70
2023/04/21 07:59:05;;;;;;;24.60;22.05;;;;;;;12.27;100.00;101262.41;5278462;28;20063;-71
2023/04/21 08:01:36;;;;;;;22.85;20.52;;;;;;;12.29;100.00;101264.91;5275740;28;20021;-70
2023/04/21 08:04:08;;;;;;;24.52;22.02;;;;;;;12.40;100.00;101263.03;5282297;28;20023;-71
2023/04/21 08:06:39;;;;;;;22.60;20.27;;;;;;;12.47;100.00;101260.72;5262522;28;20089;-70
2023/04/21 08:09:10;;;;;;;21.08;18.88;;;;;;;12.49;100.00;101242.19;5279370;28;20028;-71
2023/04/21 08:11:42;;;;;;;20.40;18.38;;;;;;;12.62;100.00;101258.56;5278770;28;20106;-71
2023/04/21 08:14:13;;;;;;;20.83;18.65;;;;;;;12.82;100.00;101256.81;5284796;28;20459;-71
2023/04/21 08:16:44;;;;;;;21.17;18.95;;;;;;;12.89;100.00;101261.41;5280600;28;20077;-70
2023/04/21 08:19:16;;;;;;;21.15;19.00;;;;;;;13.00;100.00;101259.63;5263303;28;20047;-70
2023/04/21 08:21:47;;;;;;;19.75;17.83;;;;;;;13.13;100.00;101253.13;5281004;28;20039;-70
2023/04/21 08:24:18;;;;;;;21.13;19.13;;;;;;;13.26;100.00;101252.06;5260972;28;20062;-70
2023/04/21 08:26:50;;;;;;;20.67;18.67;;;;;;;13.41;100.00;101255.09;5283614;28;20123;-70
2023/04/21 08:29:21;;;;;;;19.55;17.60;;;;;;;13.55;100.00;101244.16;5279435;28;20024;-70
2023/04/21 08:31:52;;;;;;;18.70;16.88;;;;;;;13.51;99.99;101245.41;5276424;28;20040;-71
2023/04/21 08:34:24;;;;;;;19.48;17.48;;;;;;;13.55;100.00;101247.63;5277311;28;20024;-71
2023/04/21 08:36:55;;;;;;;18.65;16.85;;;;;;;13.55;100.00;101238.91;5261943;28;20451;-70
2023/04/21 08:39:27;;;;;;;16.42;14.73;;;;;;;13.81;97.64;101253.16;5281505;28;20086;-70
2023/04/21 08:42:01;;;;;;;17.00;15.40;;;;;;;13.94;97.49;101247.59;5282234;28;20494;-70
2023/04/21 08:44:32;;;;;;;17.10;15.40;;;;;;;13.80;94.42;101234.88;5280397;28;20742;-70
2023/04/21 08:47:03;;;;;;;17.15;15.45;;;;;;;14.05;97.14;101242.16;5279771;28;20032;-71
2023/04/21 08:49:37;;;;;;;16.55;14.85;;;;;;;14.37;99.10;101243.56;5279531;28;20036;-71
2023/04/21 08:52:11;;;;;;;18.50;16.60;;;;;;;14.30;95.80;101251.22;5273759;28;20032;-70
2023/04/21 08:54:42;;;;;;;16.63;14.98;;;;;;;14.39;92.05;101256.59;5277005;28;20036;-70
2023/04/21 08:57:14;;;;;;;16.27;14.57;;;;;;;14.25;87.99;101250.84;5279289;28;20062;-70
2023/04/21 08:59:45;;;;;;;14.90;13.48;;;;;;;14.32;90.45;101244.00;5262440;28;20071;-70
2023/04/21 09:02:21;;;;;;;16.20;14.60;;;;;;;14.60;93.63;101229.06;5279590;28;20074;-71
2023/04/21 09:04:54;;;;;;;15.73;14.23;;;;;;;14.84;90.99;101239.03;5277666;28;20451;-71
2023/04/21 09:07:37;;;;;;;14.57;13.13;;;;;;;15.20;88.19;101233.00;5258111;28;20028;-71
2023/04/21 09:10:09;;;;;;;14.57;13.07;;;;;;;15.16;85.50;101223.72;5276371;28;20028;-71
2023/04/21 09:12:40;;;;;;;14.05;12.65;;;;;;;15.16;83.63;101224.53;5261877;28;20031;-71
2023/04/21 09:15:11;;;;;;;14.48;12.98;;;;;;;14.97;80.92;101227.31;5276910;28;20073;-71
2023/04/21 09:17:44;;;;;;;12.48;11.30;;;;;;;15.18;85.02;101219.09;5276430;28;20110;-71
2023/04/21 09:20:18;;;;;;;13.05;11.85;;;;;;;15.35;82.70;101218.28;5278157;28;20147;-70
2023/04/21 09:22:50;;;;;;;13.18;11.88;;;;;;;15.35;77.93;101222.72;5282705;28;20023;-71
2023/04/21 09:25:21;;;;;;;12.45;11.25;;;;;;;15.45;80.19;101220.81;5278614;28;20024;-71
2023/04/21 09:27:53;;;;;;;12.10;11.00;;;;;;;15.42;76.63;101221.13;5279603;28;20032;-71
2023/04/21 09:30:24;;;;;;;13.30;11.75;;;;;;;15.43;76.17;101220.16;5277646;28;20036;-71
2023/04/21 09:32:56;;;;;;;11.63;10.43;;;;;;;15.61;79.18;101212.19;5276731;28;20031;-71
2023/04/21 09:35:31;;;;;;;13.15;11.95;;;;;;;15.82;79.12;101218.00;5277957;28;20024;-71
2023/04/21 09:38:03;;;;;;;13.50;12.13;;;;;;;15.95;82.45;101221.06;5278311;28;20066;-71
2023/04/21 09:40:34;;;;;;;13.50;12.10;;;;;;;16.13;83.18;101220.16;5277860;28;20043;-71
2023/04/21 09:43:06;;;;;;;13.45;12.20;;;;;;;16.18;80.30;101216.06;5277830;28;20477;-71
2023/04/21 09:45:38;;;;;;;10.75;9.65;;;;;;;16.28;69.77;101208.00;5277234;28;20027;-71
2023/04/21 09:48:12;;;;;;;10.43;9.38;;;;;;;16.43;70.33;101214.34;5270636;28;20938;-71
2023/04/21 09:50:45;;;;;;;10.40;9.38;;;;;;;16.50;71.33;101219.84;5276982;28;20028;-71
2023/04/21 09:53:20;;;;;;;10.32;9.32;;;;;;;16.66;71.20;101213.78;5279010;28;20027;-71
2023/04/21 09:55:55;;;;;;;10.07;9.07;;;;;;;16.64;70.63;101213.94;5277057;28;20079;-71
2023/04/21 09:58:30;;;;;;;10.68;9.60;;;;;;;16.61;70.97;101206.31;5281302;28;20032;-71
2023/04/21 10:01:03;;;;;;;10.45;9.45;;;;;;;16.69;69.80;101195.75;5275271;28;20032;-71
2023/04/21 10:03:37;;;;;;;9.48;8.52;;;;;;;16.84;68.41;101208.41;5277545;28;20044;-71
2023/04/21 10:06:09;;;;;;;9.40;8.35;;;;;;;16.88;66.86;101207.09;5282165;28;20025;-71
2023/04/21 10:08:40;;;;;;;8.70;7.88;;;;;;;17.05;70.36;101206.13;5280978;28;20036;-71
2023/04/21 10:11:12;;;;;;;9.80;8.82;;;;;;;16.89;67.55;101191.03;5276690;28;20348;-71
2023/04/21 10:13:45;;;;;;;10.40;9.40;;;;;;;16.78;63.45;101186.91;5275327;28;20103;-71
2023/04/21 10:16:17;;;;;;;10.90;9.80;;;;;;;16.85;65.21;101191.53;5274179;28;20040;-71
2023/04/21 10:18:48;;;;;;;9.87;8.87;;;;;;;17.13;66.49;101190.25;5278910;28;20043;-71
2023/04/21 10:21:20;;;;;;;10.50;9.40;;;;;;;17.43;67.54;101187.94;5272729;28;20032;-71
2023/04/21 10:23:53;;;;;;;17.05;12.88;;;;;;;17.31;70.07;101178.66;5276592;28;20482;-71
2023/04/21 10:26:31;;;;;;;12.45;11.13;;;;;;;17.17;68.15;101180.97;5280959;28;20110;-71
2023/04/21 10:29:06;;;;;;;13.23;11.93;;;;;;;17.12;71.81;101179.81;5271377;28;20030;-71
2023/04/21 10:31:43;;;;;;;13.50;12.10;;;;;;;17.18;71.44;101181.81;5275517;28;20473;-71
2023/04/21 10:34:16;;;;;;;12.73;11.43;;;;;;;17.38;71.41;101169.06;5278317;28;20037;-71
2023/04/21 10:37:06;;;;;;;12.23;11.02;;;;;;;17.36;66.00;101141.94;5260222;28;20035;-71
2023/04/21 10:39:58;;;;;;;11.27;10.13;;;;;;;17.80;65.17;101157.44;5269008;28;20951;-71
2023/04/21 10:42:33;;;;;;;11.35;10.30;;;;;;;17.77;63.10;101155.09;5277174;28;20444;-71
2023/04/21 10:45:07;;;;;;;11.27;10.23;;;;;;;17.81;64.03;101151.97;5277060;28;20778;-72
2023/04/21 10:47:48;;;;;;;12.88;11.68;;;;;;;17.81;64.38;101151.16;5280528;28;20788;-71
2023/04/21 10:50:22;;;;;;;11.43;10.32;;;;;;;17.61;69.61;101151.47;5274408;28;20055;-71
2023/04/21 10:53:11;;;;;;;12.88;11.57;;;;;;;17.57;65.30;101155.44;5277712;28;20058;-72
2023/04/21 10:55:47;;;;;;;12.73;11.52;;;;;;;17.60;65.28;101155.13;5279705;28;20137;-72
2023/04/21 10:58:21;;;;;;;11.73;10.63;;;;;;;17.51;64.76;101153.50;5277920;28;20036;-72
2023/04/21 11:00:54;;;;;;;12.82;11.63;;;;;;;17.38;65.81;101146.03;5276905;28;20283;-72
2023/04/21 11:03:32;;;;;;;;;;;;;;;18.07;63.84;101145.56;5278787;28;20020;-72
2023/04/21 11:06:13;;;;;;;12.75;10.80;;;;;;;17.41;65.23;101143.06;5275882;28;19920;-71
2023/04/21 11:08:55;;;;;;;10.70;9.70;;;;;;;17.54;65.10;101137.28;5275710;28;20027;-72
2023/04/21 11:11:26;;;;;;;10.82;9.82;;;;;;;17.35;66.12;101138.44;5280859;28;20062;-72
2023/04/21 11:14:03;;;;;;;11.77;10.68;;;;;;;17.34;61.88;101130.66;5277289;28;20111;-72
2023/04/21 11:16:36;;;;;;;11.48;9.27;;;;;;;17.50;64.65;101118.22;5260406;28;20089;-72
2023/04/21 11:19:07;;;;;;;;;;;;;;;18.36;63.51;101113.13;5270339;28;20020;-72
2023/04/21 11:21:39;;;;;;;10.82;9.73;;;;;;;17.71;60.76;101114.19;5277075;28;19969;-72
2023/04/21 11:24:10;;;;;;;9.55;8.68;;;;;;;17.80;62.35;101105.25;5278919;28;20011;-72
2023/04/21 11:26:41;;;;;;;8.75;7.85;;;;;;;18.15;60.48;101103.13;5272217;28;20028;-72
2023/04/21 11:29:13;;;;;;;8.38;7.57;;;;;;;17.98;58.31;101105.03;5278372;28;20089;-72
2023/04/21 11:31:47;;;;;;;7.78;6.97;;;;;;;18.19;57.24;101091.19;5258436;28;20028;-72